sensor_id;sensor_type;location;lat;lon;timestamp;P1;durP1;ratioP1;P2;durP2;ratioP2
5638;SDS011;2841;44.526;11.360;2022-11-20T00:02:20;67.50;;;30.00;;
5638;SDS011;2841;44.526;11.360;2022-11-20T00:04:47;69.03;;;28.27;;
5638;SDS011;2841;44.526;11.360;2022-11-20T00:07:15;62.73;;;27.90;;
5638;SDS011;2841;44.526;11.360;2022-11-20T00:09:42;66.77;;;29.43;;
5638;SDS011;2841;44.526;11.360;2022-11-20T00:12:09;57.50;;;26.70;;
5638;SDS011;2841;44.526;11.360;2022-11-20T00:14:36;66.70;;;28.80;;
5638;SDS011;2841;44.526;11.360;2022-11-20T00:17:04;55.07;;;26.17;;
5638;SDS011;2841;44.526;11.360;2022-11-20T00:19:31;54.73;;;24.23;;
5638;SDS011;2841;44.526;11.360;2022-11-20T00:21:58;61.00;;;26.53;;
5638;SDS011;2841;44.526;11.360;2022-11-20T00:24:26;63.57;;;26.87;;
5638;SDS011;2841;44.526;11.360;2022-11-20T00:26:54;65.27;;;26.80;;
5638;SDS011;2841;44.526;11.360;2022-11-20T00:29:21;61.40;;;24.60;;
5638;SDS011;2841;44.526;11.360;2022-11-20T00:31:48;59.57;;;28.03;;
5638;SDS011;2841;44.526;11.360;2022-11-20T00:34:14;52.23;;;27.23;;
5638;SDS011;2841;44.526;11.360;2022-11-20T00:36:41;55.90;;;24.93;;
5638;SDS011;2841;44.526;11.360;2022-11-20T00:39:08;59.83;;;26.93;;
5638;SDS011;2841;44.526;11.360;2022-11-20T00:41:37;67.57;;;28.23;;
5638;SDS011;2841;44.526;11.360;2022-11-20T00:44:04;83.10;;;28.00;;
5638;SDS011;2841;44.526;11.360;2022-11-20T00:46:31;64.83;;;26.63;;
5638;SDS011;2841;44.526;11.360;2022-11-20T00:48:59;81.70;;;26.23;;
5638;SDS011;2841;44.526;11.360;2022-11-20T00:51:26;67.93;;;28.00;;
5638;SDS011;2841;44.526;11.360;2022-11-20T00:53:54;61.57;;;27.83;;
5638;SDS011;2841;44.526;11.360;2022-11-20T00:56:22;60.07;;;27.60;;
5638;SDS011;2841;44.526;11.360;2022-11-20T00:58:51;64.80;;;27.00;;
5638;SDS011;2841;44.526;11.360;2022-11-20T01:01:18;46.93;;;23.73;;
5638;SDS011;2841;44.526;11.360;2022-11-20T01:03:47;49.80;;;21.70;;
5638;SDS011;2841;44.526;11.360;2022-11-20T01:06:16;54.27;;;25.00;;
5638;SDS011;2841;44.526;11.360;2022-11-20T01:08:44;57.83;;;25.33;;
5638;SDS011;2841;44.526;11.360;2022-11-20T01:11:13;44.20;;;23.67;;
5638;SDS011;2841;44.526;11.360;2022-11-20T01:13:42;62.30;;;25.40;;
5638;SDS011;2841;44.526;11.360;2022-11-20T01:16:12;60.87;;;25.60;;
5638;SDS011;2841;44.526;11.360;2022-11-20T01:18:41;45.80;;;25.60;;
5638;SDS011;2841;44.526;11.360;2022-11-20T01:21:10;55.23;;;24.80;;
5638;SDS011;2841;44.526;11.360;2022-11-20T01:23:39;60.63;;;24.40;;
5638;SDS011;2841;44.526;11.360;2022-11-20T01:26:09;49.30;;;24.20;;
5638;SDS011;2841;44.526;11.360;2022-11-20T01:28:37;48.93;;;23.40;;
5638;SDS011;2841;44.526;11.360;2022-11-20T01:31:12;53.50;;;24.10;;
5638;SDS011;2841;44.526;11.360;2022-11-20T01:33:40;50.63;;;25.23;;
5638;SDS011;2841;44.526;11.360;2022-11-20T01:36:08;43.87;;;24.60;;
5638;SDS011;2841;44.526;11.360;2022-11-20T01:38:36;48.23;;;24.17;;
5638;SDS011;2841;44.526;11.360;2022-11-20T01:41:03;70.53;;;27.50;;
5638;SDS011;2841;44.526;11.360;2022-11-20T01:43:32;52.27;;;24.60;;
5638;SDS011;2841;44.526;11.360;2022-11-20T01:46:03;64.30;;;27.10;;
5638;SDS011;2841;44.526;11.360;2022-11-20T01:48:44;45.23;;;24.17;;
5638;SDS011;2841;44.526;11.360;2022-11-20T01:51:18;57.23;;;26.50;;
5638;SDS011;2841;44.526;11.360;2022-11-20T01:53:48;54.30;;;26.27;;
5638;SDS011;2841;44.526;11.360;2022-11-20T01:56:16;62.80;;;24.87;;
5638;SDS011;2841;44.526;11.360;2022-11-20T01:58:44;45.47;;;23.47;;
5638;SDS011;2841;44.526;11.360;2022-11-20T02:01:24;50.57;;;23.23;;
5638;SDS011;2841;44.526;11.360;2022-11-20T02:03:51;52.63;;;23.50;;
5638;SDS011;2841;44.526;11.360;2022-11-20T02:06:19;48.93;;;23.17;;
5638;SDS011;2841;44.526;11.360;2022-11-20T02:08:49;55.20;;;24.63;;
5638;SDS011;2841;44.526;11.360;2022-11-20T02:11:17;50.73;;;24.80;;
5638;SDS011;2841;44.526;11.360;2022-11-20T02:13:44;68.73;;;25.73;;
5638;SDS011;2841;44.526;11.360;2022-11-20T02:16:15;72.17;;;27.60;;
5638;SDS011;2841;44.526;11.360;2022-11-20T02:18:48;54.03;;;25.53;;
5638;SDS011;2841;44.526;11.360;2022-11-20T02:21:30;46.60;;;22.70;;
5638;SDS011;2841;44.526;11.360;2022-11-20T02:24:04;51.97;;;24.50;;
5638;SDS011;2841;44.526;11.360;2022-11-20T02:26:35;47.20;;;25.33;;
5638;SDS011;2841;44.526;11.360;2022-11-20T02:29:07;48.37;;;24.00;;
5638;SDS011;2841;44.526;11.360;2022-11-20T02:31:37;70.53;;;26.70;;
5638;SDS011;2841;44.526;11.360;2022-11-20T02:34:06;55.40;;;25.90;;
5638;SDS011;2841;44.526;11.360;2022-11-20T02:36:34;48.27;;;23.00;;
5638;SDS011;2841;44.526;11.360;2022-11-20T02:39:02;52.53;;;23.73;;
5638;SDS011;2841;44.526;11.360;2022-11-20T02:41:32;51.10;;;23.07;;
5638;SDS011;2841;44.526;11.360;2022-11-20T02:44:00;49.27;;;23.70;;
5638;SDS011;2841;44.526;11.360;2022-11-20T02:46:27;50.10;;;22.97;;
5638;SDS011;2841;44.526;11.360;2022-11-20T02:48:54;48.90;;;24.03;;
5638;SDS011;2841;44.526;11.360;2022-11-20T02:51:22;48.47;;;23.30;;
5638;SDS011;2841;44.526;11.360;2022-11-20T02:53:49;47.50;;;23.60;;
5638;SDS011;2841;44.526;11.360;2022-11-20T02:56:17;49.40;;;23.50;;
5638;SDS011;2841;44.526;11.360;2022-11-20T02:58:45;48.40;;;25.07;;
5638;SDS011;2841;44.526;11.360;2022-11-20T03:01:12;60.13;;;24.67;;
5638;SDS011;2841;44.526;11.360;2022-11-20T03:03:39;58.30;;;25.73;;
5638;SDS011;2841;44.526;11.360;2022-11-20T03:06:06;55.70;;;25.00;;
5638;SDS011;2841;44.526;11.360;2022-11-20T03:08:33;53.03;;;26.00;;
5638;SDS011;2841;44.526;11.360;2022-11-20T03:11:04;50.37;;;22.20;;
5638;SDS011;2841;44.526;11.360;2022-11-20T03:13:34;66.40;;;26.43;;
5638;SDS011;2841;44.526;11.360;2022-11-20T03:16:05;52.33;;;24.33;;
5638;SDS011;2841;44.526;11.360;2022-11-20T03:18:33;48.10;;;23.00;;
5638;SDS011;2841;44.526;11.360;2022-11-20T03:21:01;57.33;;;24.07;;
5638;SDS011;2841;44.526;11.360;2022-11-20T03:23:28;54.53;;;23.03;;
5638;SDS011;2841;44.526;11.360;2022-11-20T03:25:56;54.17;;;22.63;;
5638;SDS011;2841;44.526;11.360;2022-11-20T03:28:34;43.93;;;22.40;;
5638;SDS011;2841;44.526;11.360;2022-11-20T03:31:04;50.17;;;22.77;;
5638;SDS011;2841;44.526;11.360;2022-11-20T03:33:32;50.87;;;21.53;;
5638;SDS011;2841;44.526;11.360;2022-11-20T03:36:00;45.80;;;22.60;;
5638;SDS011;2841;44.526;11.360;2022-11-20T03:38:28;42.13;;;21.63;;
5638;SDS011;2841;44.526;11.360;2022-11-20T03:40:57;59.13;;;22.93;;
5638;SDS011;2841;44.526;11.360;2022-11-20T03:43:25;53.43;;;23.30;;
5638;SDS011;2841;44.526;11.360;2022-11-20T03:45:54;58.97;;;23.80;;
5638;SDS011;2841;44.526;11.360;2022-11-20T03:48:21;51.70;;;23.23;;
5638;SDS011;2841;44.526;11.360;2022-11-20T03:50:49;54.47;;;26.20;;
5638;SDS011;2841;44.526;11.360;2022-11-20T03:53:16;42.00;;;21.20;;
5638;SDS011;2841;44.526;11.360;2022-11-20T03:55:43;56.73;;;26.33;;
5638;SDS011;2841;44.526;11.360;2022-11-20T03:58:10;46.47;;;22.37;;
5638;SDS011;2841;44.526;11.360;2022-11-20T04:00:38;44.70;;;22.23;;
5638;SDS011;2841;44.526;11.360;2022-11-20T04:03:06;49.37;;;24.40;;
5638;SDS011;2841;44.526;11.360;2022-11-20T04:05:33;61.10;;;26.60;;
5638;SDS011;2841;44.526;11.360;2022-11-20T04:08:00;46.33;;;22.40;;
5638;SDS011;2841;44.526;11.360;2022-11-20T04:10:27;70.57;;;25.77;;
5638;SDS011;2841;44.526;11.360;2022-11-20T04:12:54;59.83;;;24.27;;
5638;SDS011;2841;44.526;11.360;2022-11-20T04:15:22;60.13;;;27.10;;
5638;SDS011;2841;44.526;11.360;2022-11-20T04:17:49;53.50;;;25.00;;
5638;SDS011;2841;44.526;11.360;2022-11-20T04:20:17;51.97;;;23.73;;
5638;SDS011;2841;44.526;11.360;2022-11-20T04:22:44;56.67;;;23.53;;
5638;SDS011;2841;44.526;11.360;2022-11-20T04:25:11;44.57;;;24.43;;
5638;SDS011;2841;44.526;11.360;2022-11-20T04:27:39;69.40;;;28.10;;
5638;SDS011;2841;44.526;11.360;2022-11-20T04:30:06;47.17;;;25.80;;
5638;SDS011;2841;44.526;11.360;2022-11-20T04:32:33;57.33;;;25.10;;
5638;SDS011;2841;44.526;11.360;2022-11-20T04:35:00;51.27;;;24.80;;
5638;SDS011;2841;44.526;11.360;2022-11-20T04:37:29;48.93;;;25.03;;
5638;SDS011;2841;44.526;11.360;2022-11-20T04:39:56;59.53;;;27.63;;
5638;SDS011;2841;44.526;11.360;2022-11-20T04:42:23;50.00;;;24.70;;
5638;SDS011;2841;44.526;11.360;2022-11-20T04:44:56;59.03;;;25.27;;
5638;SDS011;2841;44.526;11.360;2022-11-20T04:47:24;67.97;;;27.90;;
5638;SDS011;2841;44.526;11.360;2022-11-20T04:49:51;59.60;;;24.70;;
5638;SDS011;2841;44.526;11.360;2022-11-20T04:52:18;68.30;;;27.27;;
5638;SDS011;2841;44.526;11.360;2022-11-20T04:54:46;62.10;;;26.30;;
5638;SDS011;2841;44.526;11.360;2022-11-20T04:57:14;59.03;;;29.77;;
5638;SDS011;2841;44.526;11.360;2022-11-20T04:59:41;65.87;;;27.70;;
5638;SDS011;2841;44.526;11.360;2022-11-20T05:02:08;60.87;;;29.00;;
5638;SDS011;2841;44.526;11.360;2022-11-20T05:04:36;60.13;;;28.43;;
5638;SDS011;2841;44.526;11.360;2022-11-20T05:07:03;59.37;;;28.53;;
5638;SDS011;2841;44.526;11.360;2022-11-20T05:09:30;52.80;;;27.17;;
5638;SDS011;2841;44.526;11.360;2022-11-20T05:11:58;62.57;;;27.37;;
5638;SDS011;2841;44.526;11.360;2022-11-20T05:14:25;74.13;;;28.07;;
5638;SDS011;2841;44.526;11.360;2022-11-20T05:16:52;64.50;;;27.63;;
5638;SDS011;2841;44.526;11.360;2022-11-20T05:19:19;64.63;;;27.90;;
5638;SDS011;2841;44.526;11.360;2022-11-20T05:21:46;53.13;;;27.30;;
5638;SDS011;2841;44.526;11.360;2022-11-20T05:24:13;58.93;;;26.77;;
5638;SDS011;2841;44.526;11.360;2022-11-20T05:26:40;53.00;;;28.07;;
5638;SDS011;2841;44.526;11.360;2022-11-20T05:29:10;58.40;;;28.03;;
5638;SDS011;2841;44.526;11.360;2022-11-20T05:31:38;55.00;;;30.20;;
5638;SDS011;2841;44.526;11.360;2022-11-20T05:34:06;52.80;;;28.33;;
5638;SDS011;2841;44.526;11.360;2022-11-20T05:36:33;65.10;;;28.37;;
5638;SDS011;2841;44.526;11.360;2022-11-20T05:39:01;58.97;;;26.27;;
5638;SDS011;2841;44.526;11.360;2022-11-20T05:41:28;55.27;;;27.10;;
5638;SDS011;2841;44.526;11.360;2022-11-20T05:43:55;65.00;;;27.10;;
5638;SDS011;2841;44.526;11.360;2022-11-20T05:46:25;68.13;;;31.70;;
5638;SDS011;2841;44.526;11.360;2022-11-20T05:48:53;62.33;;;27.93;;
5638;SDS011;2841;44.526;11.360;2022-11-20T05:51:20;63.53;;;27.70;;
5638;SDS011;2841;44.526;11.360;2022-11-20T05:53:47;63.90;;;29.83;;
5638;SDS011;2841;44.526;11.360;2022-11-20T05:56:15;65.93;;;31.47;;
5638;SDS011;2841;44.526;11.360;2022-11-20T05:58:44;61.07;;;31.90;;
5638;SDS011;2841;44.526;11.360;2022-11-20T06:01:12;55.47;;;28.90;;
5638;SDS011;2841;44.526;11.360;2022-11-20T06:03:42;63.80;;;35.07;;
5638;SDS011;2841;44.526;11.360;2022-11-20T06:06:12;61.23;;;29.53;;
5638;SDS011;2841;44.526;11.360;2022-11-20T06:08:40;69.17;;;31.63;;
5638;SDS011;2841;44.526;11.360;2022-11-20T06:11:08;77.00;;;32.73;;
5638;SDS011;2841;44.526;11.360;2022-11-20T06:13:37;56.27;;;27.27;;
5638;SDS011;2841;44.526;11.360;2022-11-20T06:16:05;63.37;;;33.47;;
5638;SDS011;2841;44.526;11.360;2022-11-20T06:18:32;71.67;;;31.90;;
5638;SDS011;2841;44.526;11.360;2022-11-20T06:21:01;57.13;;;29.60;;
5638;SDS011;2841;44.526;11.360;2022-11-20T06:23:29;66.40;;;29.77;;
5638;SDS011;2841;44.526;11.360;2022-11-20T06:25:57;55.23;;;28.97;;
5638;SDS011;2841;44.526;11.360;2022-11-20T06:28:27;57.20;;;28.97;;
5638;SDS011;2841;44.526;11.360;2022-11-20T06:30:53;59.67;;;29.13;;
5638;SDS011;2841;44.526;11.360;2022-11-20T06:33:20;64.33;;;30.23;;
5638;SDS011;2841;44.526;11.360;2022-11-20T06:35:47;62.73;;;29.00;;
5638;SDS011;2841;44.526;11.360;2022-11-20T06:38:16;64.50;;;32.53;;
5638;SDS011;2841;44.526;11.360;2022-11-20T06:40:43;78.60;;;33.50;;
5638;SDS011;2841;44.526;11.360;2022-11-20T06:43:10;64.80;;;31.00;;
5638;SDS011;2841;44.526;11.360;2022-11-20T06:45:37;72.33;;;34.10;;
5638;SDS011;2841;44.526;11.360;2022-11-20T06:48:05;62.80;;;31.03;;
5638;SDS011;2841;44.526;11.360;2022-11-20T06:50:32;65.07;;;30.53;;
5638;SDS011;2841;44.526;11.360;2022-11-20T06:53:00;63.20;;;32.77;;
5638;SDS011;2841;44.526;11.360;2022-11-20T06:55:30;56.17;;;29.30;;
5638;SDS011;2841;44.526;11.360;2022-11-20T06:57:57;63.37;;;28.33;;
5638;SDS011;2841;44.526;11.360;2022-11-20T07:00:24;56.07;;;29.47;;
5638;SDS011;2841;44.526;11.360;2022-11-20T07:02:51;73.70;;;28.37;;
5638;SDS011;2841;44.526;11.360;2022-11-20T07:05:19;63.07;;;31.50;;
5638;SDS011;2841;44.526;11.360;2022-11-20T07:07:46;53.23;;;28.87;;
5638;SDS011;2841;44.526;11.360;2022-11-20T07:10:13;63.17;;;31.37;;
5638;SDS011;2841;44.526;11.360;2022-11-20T07:12:41;61.53;;;28.43;;
5638;SDS011;2841;44.526;11.360;2022-11-20T07:15:08;72.40;;;32.50;;
5638;SDS011;2841;44.526;11.360;2022-11-20T07:17:35;57.97;;;29.30;;
5638;SDS011;2841;44.526;11.360;2022-11-20T07:20:03;58.63;;;30.30;;
5638;SDS011;2841;44.526;11.360;2022-11-20T07:22:30;70.00;;;27.17;;
5638;SDS011;2841;44.526;11.360;2022-11-20T07:24:57;59.97;;;27.40;;
5638;SDS011;2841;44.526;11.360;2022-11-20T07:27:24;56.10;;;26.80;;
5638;SDS011;2841;44.526;11.360;2022-11-20T07:29:52;57.20;;;26.20;;
5638;SDS011;2841;44.526;11.360;2022-11-20T07:32:20;71.13;;;27.90;;
5638;SDS011;2841;44.526;11.360;2022-11-20T07:34:47;53.87;;;27.03;;
5638;SDS011;2841;44.526;11.360;2022-11-20T07:37:14;49.07;;;26.70;;
5638;SDS011;2841;44.526;11.360;2022-11-20T07:39:41;59.60;;;26.33;;
5638;SDS011;2841;44.526;11.360;2022-11-20T07:42:08;56.80;;;27.73;;
5638;SDS011;2841;44.526;11.360;2022-11-20T07:44:37;48.10;;;24.70;;
5638;SDS011;2841;44.526;11.360;2022-11-20T07:47:06;58.70;;;26.70;;
5638;SDS011;2841;44.526;11.360;2022-11-20T07:49:33;43.97;;;23.77;;
5638;SDS011;2841;44.526;11.360;2022-11-20T07:52:00;49.50;;;25.20;;
5638;SDS011;2841;44.526;11.360;2022-11-20T07:54:27;49.57;;;26.73;;
5638;SDS011;2841;44.526;11.360;2022-11-20T07:56:54;53.50;;;25.27;;
5638;SDS011;2841;44.526;11.360;2022-11-20T07:59:21;46.10;;;25.63;;
5638;SDS011;2841;44.526;11.360;2022-11-20T08:01:48;48.70;;;25.80;;
5638;SDS011;2841;44.526;11.360;2022-11-20T08:04:16;49.93;;;26.70;;
5638;SDS011;2841;44.526;11.360;2022-11-20T08:06:43;51.10;;;27.53;;
5638;SDS011;2841;44.526;11.360;2022-11-20T08:09:10;45.50;;;26.27;;
5638;SDS011;2841;44.526;11.360;2022-11-20T08:11:37;54.07;;;27.00;;
5638;SDS011;2841;44.526;11.360;2022-11-20T08:14:22;56.93;;;27.57;;
5638;SDS011;2841;44.526;11.360;2022-11-20T08:16:49;45.73;;;24.87;;
5638;SDS011;2841;44.526;11.360;2022-11-20T08:19:17;51.83;;;24.43;;
5638;SDS011;2841;44.526;11.360;2022-11-20T08:21:45;49.33;;;25.70;;
5638;SDS011;2841;44.526;11.360;2022-11-20T08:24:12;51.80;;;24.97;;
5638;SDS011;2841;44.526;11.360;2022-11-20T08:26:39;49.90;;;25.77;;
5638;SDS011;2841;44.526;11.360;2022-11-20T08:29:07;47.43;;;23.87;;
5638;SDS011;2841;44.526;11.360;2022-11-20T08:31:34;47.17;;;23.20;;
5638;SDS011;2841;44.526;11.360;2022-11-20T08:34:02;56.60;;;25.17;;
5638;SDS011;2841;44.526;11.360;2022-11-20T08:36:32;52.73;;;25.87;;
5638;SDS011;2841;44.526;11.360;2022-11-20T08:39:00;53.73;;;24.90;;
5638;SDS011;2841;44.526;11.360;2022-11-20T08:41:27;43.03;;;22.27;;
5638;SDS011;2841;44.526;11.360;2022-11-20T08:43:58;54.53;;;24.50;;
5638;SDS011;2841;44.526;11.360;2022-11-20T08:46:27;49.27;;;21.10;;
5638;SDS011;2841;44.526;11.360;2022-11-20T08:48:59;41.13;;;21.70;;
5638;SDS011;2841;44.526;11.360;2022-11-20T08:51:26;42.03;;;21.33;;
5638;SDS011;2841;44.526;11.360;2022-11-20T08:53:54;57.03;;;24.60;;
5638;SDS011;2841;44.526;11.360;2022-11-20T08:56:22;41.07;;;20.77;;
5638;SDS011;2841;44.526;11.360;2022-11-20T08:58:49;44.07;;;22.20;;
5638;SDS011;2841;44.526;11.360;2022-11-20T09:01:17;53.40;;;22.40;;
5638;SDS011;2841;44.526;11.360;2022-11-20T09:03:45;57.97;;;21.13;;
5638;SDS011;2841;44.526;11.360;2022-11-20T09:06:12;46.20;;;21.03;;
5638;SDS011;2841;44.526;11.360;2022-11-20T09:08:39;44.87;;;21.20;;
5638;SDS011;2841;44.526;11.360;2022-11-20T09:11:08;34.87;;;20.37;;
5638;SDS011;2841;44.526;11.360;2022-11-20T09:13:35;42.77;;;22.37;;
5638;SDS011;2841;44.526;11.360;2022-11-20T09:16:04;40.83;;;20.83;;
5638;SDS011;2841;44.526;11.360;2022-11-20T09:18:33;39.60;;;19.40;;
5638;SDS011;2841;44.526;11.360;2022-11-20T09:21:02;47.30;;;21.77;;
5638;SDS011;2841;44.526;11.360;2022-11-20T09:23:31;43.87;;;21.73;;
5638;SDS011;2841;44.526;11.360;2022-11-20T09:26:01;37.67;;;19.73;;
5638;SDS011;2841;44.526;11.360;2022-11-20T09:28:30;36.97;;;18.83;;
5638;SDS011;2841;44.526;11.360;2022-11-20T09:30:58;38.20;;;19.90;;
5638;SDS011;2841;44.526;11.360;2022-11-20T09:33:25;42.90;;;21.00;;
5638;SDS011;2841;44.526;11.360;2022-11-20T09:35:53;35.37;;;18.97;;
5638;SDS011;2841;44.526;11.360;2022-11-20T09:38:20;39.13;;;21.50;;
5638;SDS011;2841;44.526;11.360;2022-11-20T09:40:49;43.07;;;20.10;;
5638;SDS011;2841;44.526;11.360;2022-11-20T09:43:23;46.07;;;20.30;;
5638;SDS011;2841;44.526;11.360;2022-11-20T09:46:03;44.10;;;21.70;;
5638;SDS011;2841;44.526;11.360;2022-11-20T09:48:42;46.10;;;19.80;;
5638;SDS011;2841;44.526;11.360;2022-11-20T09:51:19;60.27;;;23.03;;
5638;SDS011;2841;44.526;11.360;2022-11-20T09:53:56;43.67;;;20.53;;
5638;SDS011;2841;44.526;11.360;2022-11-20T09:56:31;37.30;;;21.67;;
5638;SDS011;2841;44.526;11.360;2022-11-20T09:59:02;49.03;;;23.37;;
5638;SDS011;2841;44.526;11.360;2022-11-20T10:01:33;43.80;;;22.80;;
5638;SDS011;2841;44.526;11.360;2022-11-20T10:04:08;60.10;;;24.70;;
5638;SDS011;2841;44.526;11.360;2022-11-20T10:06:40;40.80;;;20.60;;
5638;SDS011;2841;44.526;11.360;2022-11-20T10:09:14;37.43;;;18.57;;
5638;SDS011;2841;44.526;11.360;2022-11-20T10:11:48;44.77;;;21.20;;
5638;SDS011;2841;44.526;11.360;2022-11-20T10:14:26;49.80;;;21.20;;
5638;SDS011;2841;44.526;11.360;2022-11-20T10:17:03;48.77;;;23.90;;
5638;SDS011;2841;44.526;11.360;2022-11-20T10:19:43;54.27;;;23.60;;
5638;SDS011;2841;44.526;11.360;2022-11-20T10:22:23;41.00;;;22.50;;
5638;SDS011;2841;44.526;11.360;2022-11-20T10:25:02;46.07;;;21.90;;
5638;SDS011;2841;44.526;11.360;2022-11-20T10:30:40;61.23;;;23.13;;
5638;SDS011;2841;44.526;11.360;2022-11-20T10:33:11;49.40;;;23.27;;
5638;SDS011;2841;44.526;11.360;2022-11-20T10:35:42;48.63;;;22.47;;
5638;SDS011;2841;44.526;11.360;2022-11-20T10:38:16;53.43;;;24.77;;
5638;SDS011;2841;44.526;11.360;2022-11-20T10:40:48;49.73;;;24.20;;
5638;SDS011;2841;44.526;11.360;2022-11-20T10:43:20;59.90;;;23.77;;
5638;SDS011;2841;44.526;11.360;2022-11-20T10:45:53;53.73;;;25.40;;
5638;SDS011;2841;44.526;11.360;2022-11-20T10:48:27;65.40;;;24.07;;
5638;SDS011;2841;44.526;11.360;2022-11-20T10:50:59;75.67;;;26.60;;
5638;SDS011;2841;44.526;11.360;2022-11-20T10:53:40;57.80;;;26.00;;
5638;SDS011;2841;44.526;11.360;2022-11-20T10:56:19;44.77;;;22.87;;
5638;SDS011;2841;44.526;11.360;2022-11-20T10:58:54;53.37;;;24.37;;
5638;SDS011;2841;44.526;11.360;2022-11-20T11:01:29;47.00;;;22.63;;
5638;SDS011;2841;44.526;11.360;2022-11-20T11:03:57;56.93;;;24.33;;
5638;SDS011;2841;44.526;11.360;2022-11-20T11:06:27;51.57;;;25.37;;
5638;SDS011;2841;44.526;11.360;2022-11-20T11:08:59;48.37;;;23.00;;
5638;SDS011;2841;44.526;11.360;2022-11-20T11:11:30;46.00;;;23.27;;
5638;SDS011;2841;44.526;11.360;2022-11-20T11:14:05;40.83;;;21.60;;
5638;SDS011;2841;44.526;11.360;2022-11-20T11:16:33;51.93;;;23.03;;
5638;SDS011;2841;44.526;11.360;2022-11-20T11:19:05;44.40;;;21.67;;
5638;SDS011;2841;44.526;11.360;2022-11-20T11:21:37;53.30;;;21.73;;
5638;SDS011;2841;44.526;11.360;2022-11-20T11:24:14;50.83;;;24.10;;
5638;SDS011;2841;44.526;11.360;2022-11-20T11:26:50;44.10;;;20.30;;
5638;SDS011;2841;44.526;11.360;2022-11-20T11:29:19;43.50;;;21.27;;
5638;SDS011;2841;44.526;11.360;2022-11-20T11:31:46;50.10;;;22.40;;
5638;SDS011;2841;44.526;11.360;2022-11-20T11:34:15;42.63;;;19.60;;
5638;SDS011;2841;44.526;11.360;2022-11-20T11:36:56;52.17;;;22.63;;
5638;SDS011;2841;44.526;11.360;2022-11-20T11:39:24;41.73;;;19.33;;
5638;SDS011;2841;44.526;11.360;2022-11-20T11:41:53;40.67;;;17.40;;
5638;SDS011;2841;44.526;11.360;2022-11-20T11:44:21;32.57;;;16.00;;
5638;SDS011;2841;44.526;11.360;2022-11-20T11:47:08;39.87;;;19.57;;
5638;SDS011;2841;44.526;11.360;2022-11-20T11:49:42;36.07;;;17.47;;
5638;SDS011;2841;44.526;11.360;2022-11-20T11:52:11;41.83;;;19.87;;
5638;SDS011;2841;44.526;11.360;2022-11-20T11:54:43;42.43;;;16.90;;
5638;SDS011;2841;44.526;11.360;2022-11-20T11:57:17;36.40;;;17.23;;
5638;SDS011;2841;44.526;11.360;2022-11-20T11:59:54;27.53;;;13.73;;
5638;SDS011;2841;44.526;11.360;2022-11-20T12:02:32;31.73;;;15.20;;
5638;SDS011;2841;44.526;11.360;2022-11-20T12:05:11;29.63;;;15.03;;
5638;SDS011;2841;44.526;11.360;2022-11-20T12:07:45;28.23;;;15.00;;
5638;SDS011;2841;44.526;11.360;2022-11-20T12:10:19;37.67;;;16.47;;
5638;SDS011;2841;44.526;11.360;2022-11-20T12:12:49;41.50;;;18.87;;
5638;SDS011;2841;44.526;11.360;2022-11-20T12:15:23;30.83;;;16.23;;
5638;SDS011;2841;44.526;11.360;2022-11-20T12:17:55;27.90;;;13.93;;
5638;SDS011;2841;44.526;11.360;2022-11-20T12:20:24;30.20;;;14.03;;
5638;SDS011;2841;44.526;11.360;2022-11-20T12:22:56;31.87;;;15.60;;
5638;SDS011;2841;44.526;11.360;2022-11-20T12:25:28;39.80;;;18.20;;
5638;SDS011;2841;44.526;11.360;2022-11-20T12:31:16;35.90;;;15.77;;
5638;SDS011;2841;44.526;11.360;2022-11-20T12:33:57;34.17;;;15.17;;
5638;SDS011;2841;44.526;11.360;2022-11-20T12:36:39;32.17;;;15.10;;
5638;SDS011;2841;44.526;11.360;2022-11-20T12:42:11;30.23;;;13.00;;
5638;SDS011;2841;44.526;11.360;2022-11-20T12:45:15;28.93;;;14.30;;
5638;SDS011;2841;44.526;11.360;2022-11-20T12:48:09;33.73;;;13.57;;
5638;SDS011;2841;44.526;11.360;2022-11-20T12:50:56;30.30;;;13.63;;
5638;SDS011;2841;44.526;11.360;2022-11-20T12:53:36;35.93;;;16.07;;
5638;SDS011;2841;44.526;11.360;2022-11-20T12:56:11;22.83;;;11.27;;
5638;SDS011;2841;44.526;11.360;2022-11-20T12:58:49;21.77;;;11.43;;
5638;SDS011;2841;44.526;11.360;2022-11-20T13:01:35;22.00;;;10.37;;
5638;SDS011;2841;44.526;11.360;2022-11-20T13:04:15;18.03;;;8.80;;
5638;SDS011;2841;44.526;11.360;2022-11-20T13:06:53;16.97;;;8.37;;
5638;SDS011;2841;44.526;11.360;2022-11-20T13:09:22;19.03;;;9.03;;
5638;SDS011;2841;44.526;11.360;2022-11-20T13:11:54;22.83;;;8.07;;
5638;SDS011;2841;44.526;11.360;2022-11-20T13:14:30;20.30;;;9.43;;
5638;SDS011;2841;44.526;11.360;2022-11-20T13:17:04;19.47;;;9.10;;
5638;SDS011;2841;44.526;11.360;2022-11-20T13:19:36;23.20;;;8.93;;
5638;SDS011;2841;44.526;11.360;2022-11-20T13:22:03;16.40;;;7.20;;
5638;SDS011;2841;44.526;11.360;2022-11-20T13:24:32;15.90;;;6.27;;
5638;SDS011;2841;44.526;11.360;2022-11-20T13:26:59;15.80;;;8.60;;
5638;SDS011;2841;44.526;11.360;2022-11-20T13:29:28;17.03;;;8.40;;
5638;SDS011;2841;44.526;11.360;2022-11-20T13:32:02;18.60;;;8.63;;
5638;SDS011;2841;44.526;11.360;2022-11-20T13:34:39;16.47;;;8.80;;
5638;SDS011;2841;44.526;11.360;2022-11-20T13:37:23;20.80;;;7.97;;
5638;SDS011;2841;44.526;11.360;2022-11-20T13:40:04;17.80;;;8.63;;
5638;SDS011;2841;44.526;11.360;2022-11-20T13:42:34;12.10;;;7.47;;
5638;SDS011;2841;44.526;11.360;2022-11-20T13:45:08;18.80;;;7.77;;
5638;SDS011;2841;44.526;11.360;2022-11-20T13:47:38;12.37;;;7.80;;
5638;SDS011;2841;44.526;11.360;2022-11-20T13:50:14;20.37;;;7.20;;
5638;SDS011;2841;44.526;11.360;2022-11-20T13:52:44;17.13;;;6.93;;
5638;SDS011;2841;44.526;11.360;2022-11-20T13:55:21;18.17;;;8.30;;
5638;SDS011;2841;44.526;11.360;2022-11-20T13:57:59;14.23;;;6.57;;
5638;SDS011;2841;44.526;11.360;2022-11-20T14:00:46;17.83;;;7.80;;
5638;SDS011;2841;44.526;11.360;2022-11-20T14:03:18;21.67;;;6.77;;
5638;SDS011;2841;44.526;11.360;2022-11-20T14:05:49;17.13;;;7.40;;
5638;SDS011;2841;44.526;11.360;2022-11-20T14:08:23;17.40;;;8.47;;
5638;SDS011;2841;44.526;11.360;2022-11-20T14:11:11;25.93;;;7.10;;
5638;SDS011;2841;44.526;11.360;2022-11-20T14:13:50;11.97;;;6.70;;
5638;SDS011;2841;44.526;11.360;2022-11-20T14:16:20;20.97;;;8.43;;
5638;SDS011;2841;44.526;11.360;2022-11-20T14:18:47;14.13;;;7.60;;
5638;SDS011;2841;44.526;11.360;2022-11-20T14:21:21;22.00;;;8.50;;
5638;SDS011;2841;44.526;11.360;2022-11-20T14:23:51;16.63;;;7.50;;
5638;SDS011;2841;44.526;11.360;2022-11-20T14:26:21;12.67;;;6.53;;
5638;SDS011;2841;44.526;11.360;2022-11-20T14:28:49;12.93;;;6.30;;
5638;SDS011;2841;44.526;11.360;2022-11-20T14:31:20;13.97;;;7.17;;
5638;SDS011;2841;44.526;11.360;2022-11-20T14:33:50;12.30;;;5.80;;
5638;SDS011;2841;44.526;11.360;2022-11-20T14:36:19;17.93;;;9.10;;
5638;SDS011;2841;44.526;11.360;2022-11-20T14:38:48;16.33;;;7.80;;
5638;SDS011;2841;44.526;11.360;2022-11-20T14:41:16;11.47;;;5.63;;
5638;SDS011;2841;44.526;11.360;2022-11-20T14:43:46;12.10;;;6.30;;
5638;SDS011;2841;44.526;11.360;2022-11-20T14:46:16;12.37;;;5.80;;
5638;SDS011;2841;44.526;11.360;2022-11-20T14:48:44;9.80;;;5.23;;
5638;SDS011;2841;44.526;11.360;2022-11-20T14:51:23;8.77;;;4.67;;
5638;SDS011;2841;44.526;11.360;2022-11-20T14:53:54;13.83;;;4.73;;
5638;SDS011;2841;44.526;11.360;2022-11-20T14:56:22;10.70;;;4.77;;
5638;SDS011;2841;44.526;11.360;2022-11-20T14:58:58;10.37;;;4.97;;
5638;SDS011;2841;44.526;11.360;2022-11-20T15:01:25;14.40;;;6.07;;
5638;SDS011;2841;44.526;11.360;2022-11-20T15:03:58;14.10;;;6.60;;